Time;durP1;ratioP1;P1;durP2;ratioP2;P2;SDS_P1;SDS_P2;PMS_P1;PMS_P2;Temp;Humidity;BMP_temperature;BMP_pressure;BME280_temperature;BME280_humidity;BME280_pressure;Samples;Min_cycle;Max_cycle;Signal;HPM_P1;HPM_P2
2022/09/17 00:01:45;;;;;;;;;;;15.80;99.90;;;;;;4177599;28;19924;-63
2022/09/17 00:03:51;;;;;;;;;;;15.80;99.90;;;;;;4162166;28;19908;-63
2022/09/17 00:05:59;;;;;;;;;;;15.80;99.90;;;;;;4163538;28;19913;-63
2022/09/17 00:08:00;;;;;;;;;;;15.70;99.90;;;;;;4163309;28;19908;-63
2022/09/17 00:10:01;;;;;;;;;;;15.70;99.90;;;;;;4163496;28;19905;-62
2022/09/17 00:12:02;;;;;;;;;;;15.60;99.90;;;;;;4162792;28;19982;-64
2022/09/17 00:14:04;;;;;;;;;;;15.50;99.90;;;;;;4167083;28;19904;-63
2022/09/17 00:16:05;;;;;;;;;;;15.50;99.90;;;;;;4167872;28;20354;-62
2022/09/17 00:18:06;;;;;;;;;;;15.50;99.90;;;;;;4146885;28;19955;-62
2022/09/17 00:20:10;;;;;;;;;;;15.40;99.90;;;;;;4146219;28;19909;-64
2022/09/17 00:22:11;;;;;;;;;;;15.40;99.90;;;;;;4147582;28;20412;-65
2022/09/17 00:24:13;;;;;;;;;;;15.30;99.90;;;;;;4162501;28;19909;-64
2022/09/17 00:26:14;;;;;;;;;;;15.40;99.90;;;;;;4163156;28;19913;-65
2022/09/17 00:28:15;;;;;;;;;;;15.40;99.90;;;;;;4162470;28;19951;-65
2022/09/17 00:30:16;;;;;;;;;;;15.40;99.90;;;;;;4163432;28;19949;-64
2022/09/17 00:32:17;;;;;;;;;;;15.40;99.90;;;;;;4162824;28;19947;-65
2022/09/17 00:34:17;;;;;;;;;;;15.40;99.90;;;;;;4163137;28;20352;-64
2022/09/17 00:36:19;;;;;;;;;;;15.40;99.90;;;;;;4162738;28;19936;-65
2022/09/17 00:38:20;;;;;;;;;;;15.40;99.90;;;;;;4162396;28;19971;-63
2022/09/17 00:40:21;;;;;;;;;;;15.40;99.90;;;;;;4149955;28;19913;-63
2022/09/17 00:42:22;;;;;;;;;;;15.50;99.90;;;;;;4145963;28;19913;-63
2022/09/17 00:44:38;;;;;;;;;;;15.60;99.90;;;;;;4146932;28;19910;-64
2022/09/17 00:46:41;;;;;;;;;;;15.70;99.90;;;;;;4145744;28;19979;-64
2022/09/17 00:48:44;;;;;;;;;;;15.60;99.90;;;;;;4146844;28;19955;-63
2022/09/17 00:50:45;;;;;;;;;;;15.60;99.90;;;;;;4145627;28;19909;-63
2022/09/17 00:52:48;;;;;;;;;;;15.60;99.90;;;;;;4147900;28;19910;-64
2022/09/17 00:55:01;;;;;;;;;;;15.60;99.90;;;;;;4145643;28;19975;-65
2022/09/17 00:57:02;;;;;;;;;;;15.50;99.90;;;;;;4146752;28;19960;-64
2022/09/17 00:59:04;;;;;;;;;;;15.50;99.90;;;;;;4145529;28;19906;-63
2022/09/17 01:01:05;;;;;;;;;;;15.50;99.90;;;;;;4146556;28;19972;-63
2022/09/17 01:03:06;;;;;;;;;;;15.40;99.90;;;;;;4146775;28;19913;-63
2022/09/17 01:05:07;;;;;;;;;;;15.30;99.90;;;;;;4154414;28;19913;-64
2022/09/17 01:07:34;;;;;;;;;;;15.20;99.90;;;;;;4160876;28;19916;-63
2022/09/17 01:09:40;;;;;;;;;;;15.20;99.90;;;;;;4162929;28;19905;-64
2022/09/17 01:11:47;;;;;;;;;;;15.10;99.90;;;;;;4155606;28;19936;-62
2022/09/17 01:13:48;;;;;;;;;;;15.10;99.90;;;;;;4146615;28;19906;-63
2022/09/17 01:16:08;;;;;;;;;;;15.10;99.90;;;;;;4145309;28;19911;-64
2022/09/17 01:18:17;;;;;;;;;;;15.20;99.90;;;;;;4146198;28;19975;-63
2022/09/17 01:20:27;;;;;;;;;;;15.20;99.90;;;;;;4145716;28;20071;-63
2022/09/17 01:22:31;;;;;;;;;;;15.20;99.90;;;;;;4146336;28;19935;-63
2022/09/17 01:24:37;;;;;;;;;;;15.20;99.90;;;;;;4145392;28;19932;-64
2022/09/17 01:26:57;;;;;;;;;;;15.30;99.90;;;;;;4146383;28;19959;-63
2022/09/17 01:29:04;;;;;;;;;;;15.30;99.90;;;;;;4145102;28;20415;-63
2022/09/17 01:31:08;;;;;;;;;;;15.30;99.90;;;;;;4145741;28;19909;-63
2022/09/17 01:33:12;;;;;;;;;;;15.20;99.90;;;;;;4145293;28;19980;-63
2022/09/17 01:35:18;;;;;;;;;;;15.20;99.90;;;;;;4146301;28;19917;-63
2022/09/17 01:37:25;;;;;;;;;;;15.10;99.90;;;;;;4160791;28;20006;-63
2022/09/17 01:39:44;;;;;;;;;;;15.00;99.90;;;;;;4162129;28;19955;-63
2022/09/17 01:41:50;;;;;;;;;;;15.00;99.90;;;;;;4161559;28;20704;-63
2022/09/17 01:43:55;;;;;;;;;;;15.00;99.90;;;;;;4156506;28;19909;-64
2022/09/17 01:46:01;;;;;;;;;;;14.90;99.90;;;;;;4144940;28;19913;-64
2022/09/17 01:48:25;;;;;;;;;;;14.90;99.90;;;;;;4146173;28;19968;-63
2022/09/17 01:50:28;;;;;;;;;;;14.90;99.90;;;;;;4145036;28;19909;-63
2022/09/17 01:52:31;;;;;;;;;;;14.90;99.90;;;;;;4146191;28;20374;-63
2022/09/17 01:54:50;;;;;;;;;;;14.80;99.90;;;;;;4144989;28;19905;-63
2022/09/17 01:56:54;;;;;;;;;;;14.90;99.90;;;;;;4146065;28;19909;-64
2022/09/17 01:59:06;;;;;;;;;;;14.90;99.90;;;;;;4145021;28;20332;-64
2022/09/17 02:01:08;;;;;;;;;;;14.90;99.90;;;;;;4145885;28;19921;-64
2022/09/17 02:03:14;;;;;;;;;;;14.80;99.90;;;;;;4150687;28;19962;-64
2022/09/17 02:05:20;;;;;;;;;;;14.80;99.90;;;;;;4161892;28;19913;-64
2022/09/17 02:07:22;;;;;;;;;;;14.80;99.90;;;;;;4151418;28;19960;-64
2022/09/17 02:09:25;;;;;;;;;;;14.70;99.90;;;;;;4156336;28;19913;-64
2022/09/17 02:11:27;;;;;;;;;;;14.70;99.90;;;;;;4161450;28;19970;-63
2022/09/17 02:13:33;;;;;;;;;;;14.80;99.90;;;;;;4161568;28;19955;-64
2022/09/17 02:15:36;;;;;;;;;;;14.70;99.90;;;;;;4161474;28;20347;-64
2022/09/17 02:17:46;;;;;;;;;;;14.70;99.90;;;;;;4161384;28;19951;-64
2022/09/17 02:19:48;;;;;;;;;;;14.60;99.90;;;;;;4162058;28;19909;-64
2022/09/17 02:21:57;;;;;;;;;;;14.60;99.90;;;;;;4149801;28;19955;-64
2022/09/17 02:24:19;;;;;;;;;;;14.60;99.90;;;;;;4145464;28;19913;-62
2022/09/17 02:26:21;;;;;;;;;;;14.50;99.90;;;;;;4145035;28;19968;-64
2022/09/17 02:28:24;;;;;;;;;;;14.40;99.90;;;;;;4145420;28;19910;-64
2022/09/17 02:30:25;;;;;;;;;;;14.50;99.90;;;;;;4144572;28;19979;-64
2022/09/17 02:32:26;;;;;;;;;;;14.50;99.90;;;;;;4145676;28;19909;-63
2022/09/17 02:34:28;;;;;;;;;;;14.50;99.90;;;;;;4144740;28;20415;-64
2022/09/17 02:36:30;;;;;;;;;;;14.50;99.90;;;;;;4145754;28;19952;-64
2022/09/17 02:38:31;;;;;;;;;;;14.40;99.90;;;;;;4144705;28;19909;-63
2022/09/17 02:40:40;;;;;;;;;;;14.50;99.90;;;;;;4145690;28;19909;-63
2022/09/17 02:43:00;;;;;;;;;;;14.50;99.90;;;;;;4147808;28;19909;-63
2022/09/17 02:45:13;;;;;;;;;;;14.50;99.90;;;;;;4148651;28;19905;-64
2022/09/17 02:47:33;;;;;;;;;;;14.50;99.90;;;;;;4147669;28;19914;-64
2022/09/17 02:49:52;;;;;;;;;;;14.40;99.90;;;;;;4148868;28;19909;-64
2022/09/17 02:52:13;;;;;;;;;;;14.40;99.90;;;;;;4147381;28;19909;-64
2022/09/17 02:54:50;;;;;;;;;;;14.40;99.90;;;;;;4140948;28;19909;-64
2022/09/17 02:56:56;;;;;;;;;;;14.40;99.90;;;;;;4113914;28;19953;-64
2022/09/17 02:58:58;;;;;;;;;;;14.40;99.90;;;;;;4133533;28;19905;-63
2022/09/17 03:01:03;;;;;;;;;;;14.40;99.90;;;;;;4145889;28;19968;-64
2022/09/17 03:03:13;;;;;;;;;;;14.40;99.90;;;;;;4155198;28;19948;-64
2022/09/17 03:05:16;;;;;;;;;;;14.40;99.90;;;;;;4164022;28;19908;-63
2022/09/17 03:07:18;;;;;;;;;;;14.40;99.90;;;;;;4164379;28;19967;-64
2022/09/17 03:09:19;;;;;;;;;;;14.40;99.90;;;;;;4162047;28;20361;-64
2022/09/17 03:11:20;;;;;;;;;;;14.40;99.90;;;;;;4160229;28;19955;-64
2022/09/17 03:13:21;;;;;;;;;;;14.40;99.90;;;;;;4162983;28;19905;-64
2022/09/17 03:15:22;;;;;;;;;;;14.40;99.90;;;;;;4164584;28;19916;-63
2022/09/17 03:17:23;;;;;;;;;;;14.30;99.90;;;;;;4149243;28;20380;-64
2022/09/17 03:19:24;;;;;;;;;;;14.20;99.90;;;;;;4148467;28;19909;-64
2022/09/17 03:21:25;;;;;;;;;;;14.10;99.90;;;;;;4147743;28;19910;-64
2022/09/17 03:23:26;;;;;;;;;;;14.10;99.90;;;;;;4148259;28;19921;-64
2022/09/17 03:25:27;;;;;;;;;;;14.10;99.90;;;;;;4146782;28;19909;-64
2022/09/17 03:27:28;;;;;;;;;;;14.10;99.90;;;;;;4148053;28;19913;-64
2022/09/17 03:29:29;;;;;;;;;;;14.20;99.90;;;;;;4146759;28;19906;-65
2022/09/17 03:31:32;;;;;;;;;;;14.20;99.90;;;;;;4147729;28;20269;-64
2022/09/17 03:33:32;;;;;;;;;;;14.20;99.90;;;;;;4147319;28;20369;-64
2022/09/17 03:35:34;;;;;;;;;;;14.10;99.90;;;;;;4147317;28;19915;-64
2022/09/17 03:37:35;;;;;;;;;;;14.10;99.90;;;;;;4148409;28;19979;-63
2022/09/17 03:39:36;;;;;;;;;;;14.00;99.90;;;;;;4147053;28;19909;-64
2022/09/17 03:41:37;;;;;;;;;;;14.00;99.90;;;;;;4147878;28;19905;-64
2022/09/17 03:43:38;;;;;;;;;;;13.90;99.90;;;;;;4146795;28;19985;-64
2022/09/17 03:45:39;;;;;;;;;;;13.90;99.90;;;;;;4146141;28;19960;-64
2022/09/17 03:47:40;;;;;;;;;;;14.00;99.90;;;;;;4146811;28;19913;-66
2022/09/17 03:49:41;;;;;;;;;;;14.00;99.90;;;;;;4147756;28;19905;-64
2022/09/17 03:51:42;;;;;;;;;;;14.00;99.90;;;;;;4146836;28;20452;-64
2022/09/17 03:53:43;;;;;;;;;;;14.00;99.90;;;;;;4152502;28;19913;-64
2022/09/17 03:55:44;;;;;;;;;;;14.00;99.90;;;;;;4162683;28;20288;-65
2022/09/17 03:57:45;;;;;;;;;;;14.00;99.90;;;;;;4163912;28;19911;-65
2022/09/17 03:59:45;;;;;;;;;;;13.90;99.90;;;;;;4162606;28;20517;-65
2022/09/17 04:01:46;;;;;;;;;;;13.90;99.90;;;;;;4163492;28;19909;-65
2022/09/17 04:03:47;;;;;;;;;;;14.00;99.90;;;;;;4163311;28;20273;-65
2022/09/17 04:05:48;;;;;;;;;;;14.00;99.90;;;;;;4163184;28;19909;-65
2022/09/17 04:07:49;;;;;;;;;;;14.00;99.90;;;;;;4163496;28;19971;-64
2022/09/17 04:09:50;;;;;;;;;;;14.00;99.90;;;;;;4162770;28;19909;-63
2022/09/17 04:11:51;;;;;;;;;;;14.00;99.90;;;;;;4162493;28;19909;-62
2022/09/17 04:13:52;;;;;;;;;;;14.00;99.90;;;;;;4156041;28;19913;-63
2022/09/17 04:15:53;;;;;;;;;;;13.90;99.90;;;;;;4148103;28;20280;-63
2022/09/17 04:17:56;;;;;;;;;;;13.90;99.90;;;;;;4146174;28;20353;-63
2022/09/17 04:19:57;;;;;;;;;;;13.90;99.90;;;;;;4147451;28;19914;-64
2022/09/17 04:21:59;;;;;;;;;;;13.90;99.90;;;;;;4146470;28;19910;-63
2022/09/17 04:24:00;;;;;;;;;;;13.90;99.90;;;;;;4147270;28;20251;-63
2022/09/17 04:26:00;;;;;;;;;;;13.90;99.90;;;;;;4146056;28;19905;-63
2022/09/17 04:28:02;;;;;;;;;;;13.80;99.90;;;;;;4147072;28;19914;-64
2022/09/17 04:30:03;;;;;;;;;;;13.80;99.90;;;;;;4145934;28;19905;-64
2022/09/17 04:32:04;;;;;;;;;;;13.70;99.90;;;;;;4160433;28;20304;-64
2022/09/17 04:34:05;;;;;;;;;;;13.70;99.90;;;;;;4162578;28;19909;-64
2022/09/17 04:36:06;;;;;;;;;;;13.70;99.90;;;;;;4162651;28;19951;-63
2022/09/17 04:38:08;;;;;;;;;;;13.70;99.90;;;;;;4163014;28;19909;-63
2022/09/17 04:40:09;;;;;;;;;;;13.70;99.90;;;;;;4162292;28;19913;-63
2022/09/17 04:42:10;;;;;;;;;;;13.70;99.90;;;;;;4194125;28;19912;-64
2022/09/17 04:44:11;;;;;;;;;;;13.70;99.90;;;;;;4162220;28;20246;-62
2022/09/17 04:46:13;;;;;;;;;;;13.70;99.90;;;;;;4163213;28;19909;-63
2022/09/17 04:48:14;;;;;;;;;;;13.70;99.90;;;;;;4161943;28;19967;-63
2022/09/17 04:50:15;;;;;;;;;;;13.70;99.90;;;;;;4161563;28;19912;-63
2022/09/17 04:52:16;;;;;;;;;;;13.70;99.90;;;;;;4162134;28;20347;-64
2022/09/17 04:54:17;;;;;;;;;;;13.70;99.90;;;;;;4161333;28;19963;-63
2022/09/17 04:56:18;;;;;;;;;;;13.70;99.90;;;;;;4161963;28;19984;-63
2022/09/17 04:58:19;;;;;;;;;;;13.60;99.90;;;;;;4162855;28;20312;-63
2022/09/17 05:00:21;;;;;;;;;;;13.60;99.90;;;;;;4146691;28;19918;-63
2022/09/17 05:02:22;;;;;;;;;;;13.60;99.90;;;;;;4146184;28;19967;-63
2022/09/17 05:04:23;;;;;;;;;;;13.60;99.90;;;;;;4144102;28;19905;-63
2022/09/17 05:06:24;;;;;;;;;;;13.60;99.90;;;;;;4145838;28;20270;-63
2022/09/17 05:08:25;;;;;;;;;;;13.50;99.90;;;;;;4145932;28;19920;-63
2022/09/17 05:10:26;;;;;;;;;;;13.50;99.90;;;;;;4145413;28;19945;-63
2022/09/17 05:12:27;;;;;;;;;;;13.60;99.90;;;;;;4151923;28;19948;-62
2022/09/17 05:14:28;;;;;;;;;;;13.60;99.90;;;;;;4161540;28;19916;-63
2022/09/17 05:16:28;;;;;;;;;;;13.60;99.90;;;;;;4153326;28;20667;-64
2022/09/17 05:18:30;;;;;;;;;;;13.70;99.90;;;;;;4159115;28;19912;-63
2022/09/17 05:20:31;;;;;;;;;;;13.60;99.90;;;;;;4148932;28;20335;-63
2022/09/17 05:22:32;;;;;;;;;;;13.60;99.90;;;;;;4145365;28;19905;-64
2022/09/17 05:24:36;;;;;;;;;;;13.60;99.90;;;;;;4146277;28;19909;-65
2022/09/17 05:26:37;;;;;;;;;;;13.50;99.90;;;;;;4144984;28;20320;-64
2022/09/17 05:28:38;;;;;;;;;;;13.60;99.90;;;;;;4146015;28;19960;-64
2022/09/17 05:30:38;;;;;;;;;;;13.60;99.90;;;;;;4144739;28;19928;-64
2022/09/17 05:32:39;;;;;;;;;;;13.60;99.90;;;;;;4145221;28;19909;-64
2022/09/17 05:34:40;;;;;;;;;;;13.60;99.90;;;;;;4145230;28;20000;-64
2022/09/17 05:36:41;;;;;;;;;;;13.60;99.90;;;;;;4145089;28;19906;-64
2022/09/17 05:38:42;;;;;;;;;;;13.60;99.90;;;;;;4146471;28;20251;-64
2022/09/17 05:40:44;;;;;;;;;;;13.60;99.90;;;;;;4144716;28;19906;-64
2022/09/17 05:42:44;;;;;;;;;;;13.60;99.90;;;;;;4145845;28;20377;-63
2022/09/17 05:44:45;;;;;;;;;;;13.50;99.90;;;;;;4142770;28;19917;-63
2022/09/17 05:46:46;;;;;;;;;;;13.50;99.90;;;;;;4145934;28;19936;-64
2022/09/17 05:48:47;;;;;;;;;;;13.40;99.90;;;;;;4143286;28;19913;-64
2022/09/17 05:50:48;;;;;;;;;;;13.40;99.90;;;;;;4146339;28;19910;-64
2022/09/17 05:52:50;;;;;;;;;;;13.30;99.90;;;;;;4144858;28;19964;-64
2022/09/17 05:54:51;;;;;;;;;;;13.30;99.90;;;;;;4145783;28;20316;-64
2022/09/17 05:56:52;;;;;;;;;;;13.30;99.90;;;;;;4148160;28;19909;-64
2022/09/17 05:58:54;;;;;;;;;;;13.40;99.90;;;;;;4162110;28;19935;-63
2022/09/17 06:00:59;;;;;;;;;;;13.40;99.90;;;;;;4160845;28;19967;-63
2022/09/17 06:03:00;;;;;;;;;;;13.40;99.90;;;;;;4161551;28;20007;-64
2022/09/17 06:05:02;;;;;;;;;;;13.40;99.90;;;;;;4161233;28;19905;-62
2022/09/17 06:07:06;;;;;;;;;;;13.40;99.90;;;;;;4159781;28;19912;-65
2022/09/17 06:09:07;;;;;;;;;;;13.50;99.90;;;;;;4161490;28;20319;-64
2022/09/17 06:11:08;;;;;;;;;;;13.50;99.90;;;;;;4160723;28;19955;-64
2022/09/17 06:13:09;;;;;;;;;;;13.50;99.90;;;;;;4161708;28;19913;-64
2022/09/17 06:15:13;;;;;;;;;;;13.40;99.90;;;;;;4160769;28;19963;-64
2022/09/17 06:17:14;;;;;;;;;;;13.50;99.90;;;;;;4164540;28;19909;-63
2022/09/17 06:19:15;;;;;;;;;;;13.50;99.90;;;;;;4160802;28;20542;-63
2022/09/17 06:21:20;;;;;;;;;;;13.50;99.90;;;;;;4160420;28;19975;-63
2022/09/17 06:23:21;;;;;;;;;;;13.50;99.90;;;;;;4147730;28;19905;-63
2022/09/17 06:25:22;;;;;;;;;;;13.40;99.90;;;;;;4148534;28;19914;-63
2022/09/17 06:27:23;;;;;;;;;;;13.40;99.90;;;;;;4147618;28;19999;-63
2022/09/17 06:29:24;;;;;;;;;;;13.40;99.90;;;;;;4148833;28;20366;-63
2022/09/17 06:31:25;;;;;;;;;;;13.50;99.90;;;;;;4147438;28;19941;-63
2022/09/17 06:33:26;;;;;;;;;;;13.50;99.90;;;;;;4148626;28;19909;-64
2022/09/17 06:35:27;;;;;;;;;;;13.60;99.90;;;;;;4147653;28;20884;-63
2022/09/17 06:37:29;;;;;;;;;;;13.60;99.90;;;;;;4146384;28;19909;-63
2022/09/17 06:39:30;;;;;;;;;;;13.60;99.90;;;;;;4147603;28;19905;-64
2022/09/17 06:41:32;;;;;;;;;;;13.60;99.90;;;;;;4147739;28;19909;-63
2022/09/17 06:43:32;;;;;;;;;;;13.60;99.90;;;;;;4148278;28;19905;-63
2022/09/17 06:45:33;;;;;;;;;;;13.60;99.90;;;;;;4147379;28;19932;-64
2022/09/17 06:47:34;;;;;;;;;;;13.70;99.90;;;;;;4148080;28;19917;-64
2022/09/17 06:49:35;;;;;;;;;;;13.80;99.90;;;;;;4146863;28;19917;-64
2022/09/17 06:51:36;;;;;;;;;;;13.80;99.90;;;;;;4148595;28;19931;-64
2022/09/17 06:53:38;;;;;;;;;;;13.80;99.90;;;;;;4147739;28;19913;-63
2022/09/17 06:55:39;;;;;;;;;;;13.90;99.90;;;;;;4148371;28;19909;-64
2022/09/17 06:57:40;;;;;;;;;;;13.90;99.90;;;;;;4147341;28;19955;-65
2022/09/17 06:59:41;;;;;;;;;;;13.90;99.90;;;;;;4160795;28;20007;-63
2022/09/17 07:01:42;;;;;;;;;;;13.90;99.90;;;;;;4177315;28;19905;-64
2022/09/17 07:03:43;;;;;;;;;;;13.80;99.90;;;;;;4180419;28;19935;-63
2022/09/17 07:05:44;;;;;;;;;;;13.80;99.90;;;;;;4165637;28;19908;-64
2022/09/17 07:07:45;;;;;;;;;;;13.80;99.90;;;;;;4164042;28;20296;-64
2022/09/17 07:09:46;;;;;;;;;;;13.80;99.90;;;;;;4163635;28;19923;-63
2022/09/17 07:11:47;;;;;;;;;;;13.90;99.90;;;;;;4163886;28;19916;-64
2022/09/17 07:13:48;;;;;;;;;;;13.90;99.90;;;;;;4163730;28;19920;-63
2022/09/17 07:15:53;;;;;;;;;;;13.80;99.90;;;;;;4163264;28;19909;-64
2022/09/17 07:17:54;;;;;;;;;;;13.80;99.90;;;;;;4178238;28;19951;-64
2022/09/17 07:19:54;;;;;;;;;;;13.70;99.90;;;;;;4179729;28;19927;-64
2022/09/17 07:21:55;;;;;;;;;;;13.70;99.90;;;;;;4181500;28;19911;-64
2022/09/17 07:23:57;;;;;;;;;;;13.60;99.90;;;;;;4179827;28;20458;-63
2022/09/17 07:25:59;;;;;;;;;;;13.60;99.90;;;;;;4180905;28;20335;-63
2022/09/17 07:28:01;;;;;;;;;;;13.50;99.90;;;;;;4176418;28;19924;-64
2022/09/17 07:30:02;;;;;;;;;;;13.50;99.90;;;;;;4180564;28;19905;-64
2022/09/17 07:32:03;;;;;;;;;;;13.50;99.90;;;;;;4179275;28;19905;-63
2022/09/17 07:34:04;;;;;;;;;;;13.60;99.90;;;;;;4180571;28;19905;-63
2022/09/17 07:36:07;;;;;;;;;;;13.50;99.90;;;;;;4177660;28;19905;-63
2022/09/17 07:38:08;;;;;;;;;;;13.50;99.90;;;;;;4179738;28;19905;-65
2022/09/17 07:40:09;;;;;;;;;;;13.60;99.90;;;;;;4179363;28;19907;-64
2022/09/17 07:42:09;;;;;;;;;;;13.60;99.90;;;;;;4179583;28;19905;-64
2022/09/17 07:44:10;;;;;;;;;;;13.70;99.90;;;;;;4178505;28;19901;-64
2022/09/17 07:46:16;;;;;;;;;;;13.70;99.90;;;;;;4179391;28;20380;-64
2022/09/17 07:48:16;;;;;;;;;;;13.70;99.90;;;;;;4180045;28;19921;-64
2022/09/17 07:50:17;;;;;;;;;;;13.70;99.90;;;;;;4179111;28;19916;-64
2022/09/17 07:52:18;;;;;;;;;;;13.70;99.90;;;;;;4178442;28;19912;-64
2022/09/17 07:54:19;;;;;;;;;;;13.70;99.90;;;;;;4162722;28;19944;-65
2022/09/17 07:56:21;;;;;;;;;;;13.70;99.90;;;;;;4164187;28;19909;-64
2022/09/17 07:58:23;;;;;;;;;;;13.80;99.90;;;;;;4162474;28;19913;-64
2022/09/17 08:00:24;;;;;;;;;;;13.90;99.90;;;;;;4163337;28;19990;-65
2022/09/17 08:02:25;;;;;;;;;;;14.00;99.90;;;;;;4162520;28;20353;-64
2022/09/17 08:04:26;;;;;;;;;;;14.10;99.90;;;;;;4162839;28;19917;-64
2022/09/17 08:06:27;;;;;;;;;;;14.30;99.90;;;;;;4160975;28;19955;-65
2022/09/17 08:08:29;;;;;;;;;;;14.40;99.90;;;;;;4154119;28;19921;-65
2022/09/17 08:10:30;;;;;;;;;;;14.50;99.90;;;;;;4193612;28;20372;-63
2022/09/17 08:12:31;;;;;;;;;;;14.50;99.90;;;;;;4163018;28;19912;-65
2022/09/17 08:14:32;;;;;;;;;;;14.60;99.90;;;;;;4162701;28;19959;-65
2022/09/17 08:16:33;;;;;;;;;;;14.70;99.90;;;;;;4162311;28;19912;-65
2022/09/17 08:18:34;;;;;;;;;;;14.80;99.90;;;;;;4162980;28;19916;-63
2022/09/17 08:20:35;;;;;;;;;;;14.90;99.90;;;;;;4162126;28;19955;-66
2022/09/17 08:22:36;;;;;;;;;;;15.00;99.90;;;;;;4159314;28;20265;-64
2022/09/17 08:24:37;;;;;;;;;;;15.20;99.90;;;;;;4146890;28;19993;-64
2022/09/17 08:26:39;;;;;;;;;;;15.20;99.90;;;;;;4149089;28;20004;-66
2022/09/17 08:28:43;;;;;;;;;;;15.30;99.90;;;;;;4161989;28;19913;-65
2022/09/17 08:30:45;;;;;;;;;;;15.30;99.90;;;;;;4163292;28;19909;-65
2022/09/17 08:32:46;;;;;;;;;;;15.20;99.90;;;;;;4162205;28;19909;-65
2022/09/17 08:34:47;;;;;;;;;;;15.30;99.90;;;;;;4163124;28;19931;-64
2022/09/17 08:36:48;;;;;;;;;;;15.40;99.90;;;;;;4161653;28;19951;-64
2022/09/17 08:38:51;;;;;;;;;;;15.40;99.90;;;;;;4162381;28;19916;-64
2022/09/17 08:41:02;;;;;;;;;;;15.40;99.90;;;;;;4161757;28;20324;-64
2022/09/17 08:43:04;;;;;;;;;;;15.40;99.90;;;;;;4162251;28;19905;-64
2022/09/17 08:45:09;;;;;;;;;;;15.40;99.90;;;;;;4160259;28;19904;-64
2022/09/17 08:47:12;;;;;;;;;;;15.40;99.90;;;;;;4145997;28;19909;-63
2022/09/17 08:49:32;;;;;;;;;;;15.40;99.90;;;;;;4145565;28;19918;-64
2022/09/17 08:51:33;;;;;;;;;;;15.50;99.90;;;;;;4146075;28;19979;-64
2022/09/17 08:53:41;;;;;;;;;;;15.50;99.90;;;;;;4152478;28;19913;-63
2022/09/17 08:55:57;;;;;;;;;;;15.50;99.90;;;;;;4162139;28;19909;-64
2022/09/17 08:58:17;;;;;;;;;;;15.50;99.90;;;;;;4160742;28;20435;-61
2022/09/17 09:00:19;;;;;;;;;;;15.50;99.90;;;;;;4159001;28;19921;-62
2022/09/17 09:02:26;;;;;;;;;;;15.60;99.90;;;;;;4158467;28;19963;-64
2022/09/17 09:04:39;;;;;;;;;;;15.60;99.90;;;;;;4160390;28;19905;-65
2022/09/17 09:06:45;;;;;;;;;;;15.70;99.90;;;;;;4161384;28;19986;-64
2022/09/17 09:08:53;;;;;;;;;;;15.70;99.90;;;;;;4154750;28;19963;-65
2022/09/17 09:10:58;;;;;;;;;;;15.70;99.90;;;;;;4145294;28;19936;-66
2022/09/17 09:13:00;;;;;;;;;;;15.90;99.90;;;;;;4155219;28;19909;-66
2022/09/17 09:15:04;;;;;;;;;;;16.00;99.90;;;;;;4161594;28;20000;-66
2022/09/17 09:17:07;;;;;;;;;;;16.20;99.90;;;;;;4161472;28;19905;-67
2022/09/17 09:19:29;;;;;;;;;;;16.20;99.90;;;;;;4145609;28;19909;-65
2022/09/17 09:21:38;;;;;;;;;;;16.20;99.90;;;;;;4145044;28;19909;-65
2022/09/17 09:23:51;;;;;;;;;;;16.20;99.90;;;;;;4145444;28;19936;-64
2022/09/17 09:26:12;;;;;;;;;;;16.20;99.90;;;;;;4143720;28;19909;-65
2022/09/17 09:28:13;;;;;;;;;;;16.30;99.90;;;;;;4149787;28;20369;-69
2022/09/17 09:30:15;;;;;;;;;;;16.30;99.90;;;;;;4147740;28;19979;-66
2022/09/17 09:32:16;;;;;;;;;;;16.30;99.90;;;;;;4160409;28;19905;-66
2022/09/17 09:34:17;;;;;;;;;;;16.30;99.90;;;;;;4160928;28;20020;-67
2022/09/17 09:36:20;;;;;;;;;;;16.30;99.90;;;;;;4162006;28;19905;-66
2022/09/17 09:38:28;;;;;;;;;;;16.40;99.90;;;;;;4161023;28;19920;-65
2022/09/17 09:40:32;;;;;;;;;;;16.60;99.90;;;;;;4159615;28;19942;-63
2022/09/17 09:42:34;;;;;;;;;;;16.80;99.90;;;;;;4147087;28;19999;-63
2022/09/17 09:44:35;;;;;;;;;;;16.90;99.90;;;;;;4145598;28;19917;-64
2022/09/17 09:46:42;;;;;;;;;;;17.00;99.90;;;;;;4144485;28;19955;-66
2022/09/17 09:48:53;;;;;;;;;;;17.20;99.90;;;;;;4145503;28;20431;-65
2022/09/17 09:50:54;;;;;;;;;;;17.30;99.90;;;;;;4143707;28;19910;-65
2022/09/17 09:52:58;;;;;;;;;;;17.40;99.90;;;;;;4145887;28;20024;-66
2022/09/17 09:55:05;;;;;;;;;;;17.40;99.90;;;;;;4143425;28;19913;-65
2022/09/17 09:57:09;;;;;;;;;;;17.40;99.90;;;;;;4145953;28;20012;-63
2022/09/17 09:59:10;;;;;;;;;;;17.30;99.90;;;;;;4148424;28;19922;-65
2022/09/17 10:01:16;;;;;;;;;;;17.10;99.90;;;;;;4145885;28;19954;-64
2022/09/17 10:03:21;;;;;;;;;;;16.90;99.90;;;;;;4144860;28;19905;-64
2022/09/17 10:05:22;;;;;;;;;;;16.90;99.90;;;;;;4145115;28;19988;-65
2022/09/17 10:07:23;;;;;;;;;;;16.80;99.90;;;;;;4142888;28;19910;-62
2022/09/17 10:09:26;;;;;;;;;;;16.80;99.90;;;;;;4144770;28;19967;-66
2022/09/17 10:11:28;;;;;;;;;;;16.90;99.90;;;;;;4144176;28;20407;-64
2022/09/17 10:13:30;;;;;;;;;;;17.00;99.90;;;;;;4144635;28;20365;-72
2022/09/17 10:15:31;;;;;;;;;;;17.10;99.90;;;;;;4144457;28;19905;-65
2022/09/17 10:17:32;;;;;;;;;;;17.10;99.90;;;;;;4144128;28;20304;-65
2022/09/17 10:19:33;;;;;;;;;;;17.20;99.90;;;;;;4146330;28;19905;-63
2022/09/17 10:21:35;;;;;;;;;;;17.20;99.90;;;;;;4160726;28;19955;-68
2022/09/17 10:23:37;;;;;;;;;;;17.20;99.90;;;;;;4162915;28;19968;-65
2022/09/17 10:25:40;;;;;;;;;;;17.20;99.90;;;;;;4159730;28;19963;-64
2022/09/17 10:27:43;;;;;;;;;;;17.20;99.90;;;;;;4150933;28;19913;-64
2022/09/17 10:29:46;;;;;;;;;;;17.30;99.90;;;;;;4142270;28;19964;-64
2022/09/17 10:31:47;;;;;;;;;;;17.30;99.90;;;;;;4147322;28;19917;-66
2022/09/17 10:33:59;;;;;;;;;;;17.40;99.90;;;;;;4150130;28;19909;-64
2022/09/17 10:36:03;;;;;;;;;;;17.40;99.90;;;;;;4163698;28;20385;-66
2022/09/17 10:38:04;;;;;;;;;;;17.70;99.90;;;;;;4163843;28;20392;-65
2022/09/17 10:40:23;;;;;;;;;;;17.90;99.90;;;;;;4177310;28;19955;-66
2022/09/17 10:42:24;;;;;;;;;;;17.90;99.90;;;;;;4177075;28;19909;-64
2022/09/17 10:44:29;;;;;;;;;;;18.10;99.90;;;;;;4164016;28;19913;-63
2022/09/17 10:46:32;;;;;;;;;;;17.90;99.90;;;;;;4161878;28;19909;-65
2022/09/17 10:48:37;;;;;;;;;;;17.90;99.90;;;;;;4177624;28;19912;-64
2022/09/17 10:50:38;;;;;;;;;;;18.00;99.90;;;;;;4166939;28;19913;-63
2022/09/17 10:52:41;;;;;;;;;;;18.10;99.90;;;;;;4160796;28;19913;-64
2022/09/17 10:54:52;;;;;;;;;;;17.90;99.90;;;;;;4156968;28;19982;-64
2022/09/17 10:56:56;;;;;;;;;;;17.80;99.90;;;;;;4144534;28;20427;-64
2022/09/17 10:59:06;;;;;;;;;;;17.60;99.90;;;;;;4146831;28;19910;-64
2022/09/17 11:01:39;;;;;;;;;;;17.60;99.90;;;;;;4177096;28;20331;-65
2022/09/17 11:03:59;;;;;;;;;;;17.70;99.90;;;;;;4156763;28;19924;-64
2022/09/17 11:06:18;;;;;;;;;;;17.60;99.90;;;;;;4179830;28;19911;-68
2022/09/17 11:08:23;;;;;;;;;;;17.60;99.90;;;;;;4179582;28;19917;-65
2022/09/17 11:10:27;;;;;;;;;;;17.60;99.90;;;;;;4178652;28;19939;-65
2022/09/17 11:12:50;;;;;;;;;;;17.70;99.90;;;;;;4178077;28;19942;-65
2022/09/17 11:15:03;;;;;;;;;;;17.80;99.90;;;;;;4167629;28;20015;-64
2022/09/17 11:17:07;;;;;;;;;;;17.80;99.90;;;;;;4163392;28;19951;-63
2022/09/17 11:19:22;;;;;;;;;;;17.90;99.90;;;;;;4164207;28;20254;-63
2022/09/17 11:21:23;;;;;;;;;;;17.80;99.90;;;;;;4163363;28;20277;-65
2022/09/17 11:23:29;;;;;;;;;;;17.80;99.90;;;;;;4164351;28;19909;-62
2022/09/17 11:25:30;;;;;;;;;;;17.90;99.90;;;;;;4161933;28;19909;-63
2022/09/17 11:27:31;;;;;;;;;;;18.00;99.90;;;;;;4156019;28;19912;-65
2022/09/17 11:29:51;;;;;;;;;;;18.00;99.90;;;;;;4146207;28;19927;-62
2022/09/17 11:32:12;;;;;;;;;;;18.20;99.90;;;;;;4147637;28;20025;-64
2022/09/17 11:34:16;;;;;;;;;;;18.20;99.90;;;;;;4147252;28;19956;-63
2022/09/17 11:36:25;;;;;;;;;;;18.40;99.90;;;;;;4154506;28;19917;-64
2022/09/17 11:38:29;;;;;;;;;;;18.50;99.90;;;;;;4161600;28;19949;-64
2022/09/17 11:40:33;;;;;;;;;;;18.50;99.90;;;;;;4163767;28;19928;-64
2022/09/17 11:42:40;;;;;;;;;;;18.60;99.90;;;;;;4158831;28;19913;-65
2022/09/17 11:44:46;;;;;;;;;;;18.60;99.90;;;;;;4161956;28;19959;-63
2022/09/17 11:46:54;;;;;;;;;;;18.70;99.90;;;;;;4179409;28;19962;-64
2022/09/17 11:49:02;;;;;;;;;;;18.80;99.90;;;;;;4176333;28;19913;-64
2022/09/17 11:51:11;;;;;;;;;;;18.70;99.90;;;;;;4162905;28;19963;-63
2022/09/17 11:53:24;;;;;;;;;;;18.70;99.90;;;;;;4163369;28;19905;-63
2022/09/17 11:55:30;;;;;;;;;;;18.50;99.90;;;;;;4162663;28;19905;-64
2022/09/17 11:57:36;;;;;;;;;;;18.60;99.90;;;;;;4159111;28;19909;-64
2022/09/17 11:59:43;;;;;;;;;;;18.70;99.90;;;;;;4158737;28;19920;-63
2022/09/17 12:01:45;;;;;;;;;;;18.80;99.90;;;;;;4193794;28;19908;-64